sensor_id;sensor_type;location;lat;lon;timestamp;P1;durP1;ratioP1;P2;durP2;ratioP2
8050;SDS011;4068;42.158;24.732;2023-04-24T00:00:12;13.35;;;8.13;;
8050;SDS011;4068;42.158;24.732;2023-04-24T00:02:39;12.82;;;8.15;;
8050;SDS011;4068;42.158;24.732;2023-04-24T00:05:05;11.63;;;8.10;;
8050;SDS011;4068;42.158;24.732;2023-04-24T00:07:31;13.00;;;7.80;;
8050;SDS011;4068;42.158;24.732;2023-04-24T00:09:57;12.75;;;8.43;;
8050;SDS011;4068;42.158;24.732;2023-04-24T00:12:23;11.45;;;7.90;;
8050;SDS011;4068;42.158;24.732;2023-04-24T00:14:49;11.45;;;8.68;;
8050;SDS011;4068;42.158;24.732;2023-04-24T00:17:14;15.95;;;8.85;;
8050;SDS011;4068;42.158;24.732;2023-04-24T00:19:40;11.82;;;8.57;;
8050;SDS011;4068;42.158;24.732;2023-04-24T00:22:05;12.00;;;8.63;;
8050;SDS011;4068;42.158;24.732;2023-04-24T00:24:31;14.93;;;9.52;;
8050;SDS011;4068;42.158;24.732;2023-04-24T00:26:56;12.20;;;9.23;;
8050;SDS011;4068;42.158;24.732;2023-04-24T00:29:22;14.52;;;9.40;;
8050;SDS011;4068;42.158;24.732;2023-04-24T00:31:47;12.88;;;8.57;;
8050;SDS011;4068;42.158;24.732;2023-04-24T00:34:13;13.57;;;9.82;;
8050;SDS011;4068;42.158;24.732;2023-04-24T00:36:39;15.20;;;9.07;;
8050;SDS011;4068;42.158;24.732;2023-04-24T00:39:05;16.33;;;10.20;;
8050;SDS011;4068;42.158;24.732;2023-04-24T00:41:30;13.93;;;8.80;;
8050;SDS011;4068;42.158;24.732;2023-04-24T00:43:56;14.20;;;9.45;;
8050;SDS011;4068;42.158;24.732;2023-04-24T00:46:21;13.55;;;9.63;;
8050;SDS011;4068;42.158;24.732;2023-04-24T00:48:47;18.70;;;8.73;;
8050;SDS011;4068;42.158;24.732;2023-04-24T00:51:12;18.88;;;9.43;;
8050;SDS011;4068;42.158;24.732;2023-04-24T00:53:38;14.63;;;9.98;;
8050;SDS011;4068;42.158;24.732;2023-04-24T00:56:03;13.30;;;9.10;;
8050;SDS011;4068;42.158;24.732;2023-04-24T00:58:29;13.27;;;9.15;;
8050;SDS011;4068;42.158;24.732;2023-04-24T01:00:56;17.25;;;10.18;;
8050;SDS011;4068;42.158;24.732;2023-04-24T01:03:24;15.95;;;9.55;;
8050;SDS011;4068;42.158;24.732;2023-04-24T01:05:51;13.45;;;9.32;;
8050;SDS011;4068;42.158;24.732;2023-04-24T01:08:17;15.27;;;10.13;;
8050;SDS011;4068;42.158;24.732;2023-04-24T01:10:43;17.50;;;9.77;;
8050;SDS011;4068;42.158;24.732;2023-04-24T01:13:10;17.55;;;9.43;;
8050;SDS011;4068;42.158;24.732;2023-04-24T01:15:35;13.68;;;10.35;;
8050;SDS011;4068;42.158;24.732;2023-04-24T01:18:01;17.73;;;9.77;;
8050;SDS011;4068;42.158;24.732;2023-04-24T01:20:27;19.45;;;11.07;;
8050;SDS011;4068;42.158;24.732;2023-04-24T01:22:56;14.48;;;10.25;;
8050;SDS011;4068;42.158;24.732;2023-04-24T01:25:22;16.27;;;10.77;;
8050;SDS011;4068;42.158;24.732;2023-04-24T01:27:49;17.02;;;9.90;;
8050;SDS011;4068;42.158;24.732;2023-04-24T01:30:15;11.93;;;9.18;;
8050;SDS011;4068;42.158;24.732;2023-04-24T01:32:40;16.17;;;10.10;;
8050;SDS011;4068;42.158;24.732;2023-04-24T01:35:09;15.82;;;9.90;;
8050;SDS011;4068;42.158;24.732;2023-04-24T01:37:35;15.20;;;9.63;;
8050;SDS011;4068;42.158;24.732;2023-04-24T01:40:02;18.33;;;9.82;;
8050;SDS011;4068;42.158;24.732;2023-04-24T01:42:29;18.63;;;10.98;;
8050;SDS011;4068;42.158;24.732;2023-04-24T01:44:55;16.77;;;10.15;;
8050;SDS011;4068;42.158;24.732;2023-04-24T01:47:21;18.08;;;9.85;;
8050;SDS011;4068;42.158;24.732;2023-04-24T01:49:48;17.52;;;10.98;;
8050;SDS011;4068;42.158;24.732;2023-04-24T01:52:16;16.63;;;10.70;;
8050;SDS011;4068;42.158;24.732;2023-04-24T01:54:42;18.10;;;11.07;;
8050;SDS011;4068;42.158;24.732;2023-04-24T01:57:08;14.70;;;10.40;;
8050;SDS011;4068;42.158;24.732;2023-04-24T01:59:33;23.02;;;11.45;;
8050;SDS011;4068;42.158;24.732;2023-04-24T02:01:59;16.42;;;10.43;;
8050;SDS011;4068;42.158;24.732;2023-04-24T02:04:25;19.43;;;11.03;;
8050;SDS011;4068;42.158;24.732;2023-04-24T02:06:50;20.37;;;11.17;;
8050;SDS011;4068;42.158;24.732;2023-04-24T02:09:16;16.10;;;11.50;;
8050;SDS011;4068;42.158;24.732;2023-04-24T02:11:41;16.27;;;10.70;;
8050;SDS011;4068;42.158;24.732;2023-04-24T02:14:07;23.45;;;11.93;;
8050;SDS011;4068;42.158;24.732;2023-04-24T02:16:32;22.27;;;12.57;;
8050;SDS011;4068;42.158;24.732;2023-04-24T02:18:58;14.73;;;10.33;;
8050;SDS011;4068;42.158;24.732;2023-04-24T02:21:23;15.03;;;10.27;;
8050;SDS011;4068;42.158;24.732;2023-04-24T02:23:49;16.23;;;10.47;;
8050;SDS011;4068;42.158;24.732;2023-04-24T02:26:14;23.83;;;10.27;;
8050;SDS011;4068;42.158;24.732;2023-04-24T02:28:40;14.37;;;9.80;;
8050;SDS011;4068;42.158;24.732;2023-04-24T02:31:05;13.87;;;9.97;;
8050;SDS011;4068;42.158;24.732;2023-04-24T02:33:31;15.57;;;10.23;;
8050;SDS011;4068;42.158;24.732;2023-04-24T02:35:57;14.33;;;10.43;;
8050;SDS011;4068;42.158;24.732;2023-04-24T02:38:22;14.23;;;9.90;;
8050;SDS011;4068;42.158;24.732;2023-04-24T02:40:48;14.33;;;10.50;;
8050;SDS011;4068;42.158;24.732;2023-04-24T02:43:13;14.20;;;10.80;;
8050;SDS011;4068;42.158;24.732;2023-04-24T02:45:38;14.20;;;10.57;;
8050;SDS011;4068;42.158;24.732;2023-04-24T02:48:04;17.03;;;11.43;;
8050;SDS011;4068;42.158;24.732;2023-04-24T02:50:29;16.43;;;11.17;;
8050;SDS011;4068;42.158;24.732;2023-04-24T02:52:55;16.73;;;11.83;;
8050;SDS011;4068;42.158;24.732;2023-04-24T02:55:20;17.80;;;10.93;;
8050;SDS011;4068;42.158;24.732;2023-04-24T02:57:46;17.57;;;10.87;;
8050;SDS011;4068;42.158;24.732;2023-04-24T03:00:11;18.20;;;11.37;;
8050;SDS011;4068;42.158;24.732;2023-04-24T03:02:38;16.37;;;11.00;;
8050;SDS011;4068;42.158;24.732;2023-04-24T03:05:03;20.90;;;12.00;;
8050;SDS011;4068;42.158;24.732;2023-04-24T03:07:29;26.37;;;12.10;;
8050;SDS011;4068;42.158;24.732;2023-04-24T03:09:56;20.40;;;11.27;;
8050;SDS011;4068;42.158;24.732;2023-04-24T03:12:23;16.77;;;11.63;;
8050;SDS011;4068;42.158;24.732;2023-04-24T03:14:48;16.23;;;10.73;;
8050;SDS011;4068;42.158;24.732;2023-04-24T03:17:14;18.13;;;11.47;;
8050;SDS011;4068;42.158;24.732;2023-04-24T03:19:39;15.23;;;11.13;;
8050;SDS011;4068;42.158;24.732;2023-04-24T03:22:05;21.47;;;11.60;;
8050;SDS011;4068;42.158;24.732;2023-04-24T03:24:31;16.87;;;10.80;;
8050;SDS011;4068;42.158;24.732;2023-04-24T03:26:56;18.77;;;10.75;;
8050;SDS011;4068;42.158;24.732;2023-04-24T03:29:22;17.70;;;10.45;;
8050;SDS011;4068;42.158;24.732;2023-04-24T03:31:47;18.42;;;11.35;;
8050;SDS011;4068;42.158;24.732;2023-04-24T03:34:13;23.00;;;11.18;;
8050;SDS011;4068;42.158;24.732;2023-04-24T03:36:38;20.02;;;11.75;;
8050;SDS011;4068;42.158;24.732;2023-04-24T03:39:04;20.95;;;12.63;;
8050;SDS011;4068;42.158;24.732;2023-04-24T03:41:29;22.17;;;11.65;;
8050;SDS011;4068;42.158;24.732;2023-04-24T03:43:55;22.25;;;12.35;;
8050;SDS011;4068;42.158;24.732;2023-04-24T03:46:21;24.27;;;12.90;;
8050;SDS011;4068;42.158;24.732;2023-04-24T03:48:46;17.05;;;11.35;;
8050;SDS011;4068;42.158;24.732;2023-04-24T03:51:11;20.80;;;12.32;;
8050;SDS011;4068;42.158;24.732;2023-04-24T03:53:37;22.20;;;13.57;;
8050;SDS011;4068;42.158;24.732;2023-04-24T03:56:02;17.55;;;13.00;;
8050;SDS011;4068;42.158;24.732;2023-04-24T03:58:28;26.17;;;14.77;;
8050;SDS011;4068;42.158;24.732;2023-04-24T04:00:53;21.00;;;13.35;;
8050;SDS011;4068;42.158;24.732;2023-04-24T04:03:19;27.08;;;13.20;;
8050;SDS011;4068;42.158;24.732;2023-04-24T04:05:44;22.15;;;13.48;;
8050;SDS011;4068;42.158;24.732;2023-04-24T04:08:10;23.13;;;13.65;;
8050;SDS011;4068;42.158;24.732;2023-04-24T04:10:35;24.05;;;13.65;;
8050;SDS011;4068;42.158;24.732;2023-04-24T04:13:01;21.08;;;13.35;;
8050;SDS011;4068;42.158;24.732;2023-04-24T04:15:26;23.73;;;13.82;;
8050;SDS011;4068;42.158;24.732;2023-04-24T04:17:51;26.58;;;14.52;;
8050;SDS011;4068;42.158;24.732;2023-04-24T04:20:17;27.13;;;14.38;;
8050;SDS011;4068;42.158;24.732;2023-04-24T04:22:42;23.70;;;14.43;;
8050;SDS011;4068;42.158;24.732;2023-04-24T04:25:08;28.58;;;13.95;;
8050;SDS011;4068;42.158;24.732;2023-04-24T04:27:34;23.48;;;13.18;;
8050;SDS011;4068;42.158;24.732;2023-04-24T04:30:03;19.00;;;13.25;;
8050;SDS011;4068;42.158;24.732;2023-04-24T04:32:32;22.65;;;11.85;;
8050;SDS011;4068;42.158;24.732;2023-04-24T04:34:58;16.70;;;11.85;;
8050;SDS011;4068;42.158;24.732;2023-04-24T04:37:31;16.35;;;12.02;;
8050;SDS011;4068;42.158;24.732;2023-04-24T04:39:58;18.50;;;11.68;;
8050;SDS011;4068;42.158;24.732;2023-04-24T04:42:25;18.80;;;11.65;;
8050;SDS011;4068;42.158;24.732;2023-04-24T04:44:51;16.40;;;11.20;;
8050;SDS011;4068;42.158;24.732;2023-04-24T04:47:17;19.75;;;10.65;;
8050;SDS011;4068;42.158;24.732;2023-04-24T04:49:45;14.70;;;9.63;;
8050;SDS011;4068;42.158;24.732;2023-04-24T04:52:10;16.95;;;10.32;;
8050;SDS011;4068;42.158;24.732;2023-04-24T04:54:36;17.25;;;9.93;;
8050;SDS011;4068;42.158;24.732;2023-04-24T04:57:01;18.67;;;11.40;;
8050;SDS011;4068;42.158;24.732;2023-04-24T04:59:27;13.23;;;9.48;;
8050;SDS011;4068;42.158;24.732;2023-04-24T05:01:52;18.20;;;10.25;;
8050;SDS011;4068;42.158;24.732;2023-04-24T05:04:18;16.23;;;10.48;;
8050;SDS011;4068;42.158;24.732;2023-04-24T05:06:43;20.50;;;11.32;;
8050;SDS011;4068;42.158;24.732;2023-04-24T05:09:09;11.50;;;9.38;;
8050;SDS011;4068;42.158;24.732;2023-04-24T05:11:34;15.38;;;9.90;;
8050;SDS011;4068;42.158;24.732;2023-04-24T05:14:00;13.32;;;9.30;;
8050;SDS011;4068;42.158;24.732;2023-04-24T05:16:25;14.75;;;9.10;;
8050;SDS011;4068;42.158;24.732;2023-04-24T05:18:51;13.60;;;9.10;;
8050;SDS011;4068;42.158;24.732;2023-04-24T05:21:16;24.25;;;11.10;;
8050;SDS011;4068;42.158;24.732;2023-04-24T05:23:42;18.23;;;10.30;;
8050;SDS011;4068;42.158;24.732;2023-04-24T05:26:07;25.10;;;10.73;;
8050;SDS011;4068;42.158;24.732;2023-04-24T05:28:33;17.63;;;10.60;;
8050;SDS011;4068;42.158;24.732;2023-04-24T05:30:58;19.20;;;11.07;;
8050;SDS011;4068;42.158;24.732;2023-04-24T05:33:24;20.70;;;11.43;;
8050;SDS011;4068;42.158;24.732;2023-04-24T05:35:50;27.85;;;12.27;;
8050;SDS011;4068;42.158;24.732;2023-04-24T05:38:16;26.35;;;10.68;;
8050;SDS011;4068;42.158;24.732;2023-04-24T05:40:47;23.60;;;10.98;;
8050;SDS011;4068;42.158;24.732;2023-04-24T05:43:13;19.33;;;9.70;;
8050;SDS011;4068;42.158;24.732;2023-04-24T05:45:38;17.55;;;9.65;;
8050;SDS011;4068;42.158;24.732;2023-04-24T05:48:04;17.65;;;8.38;;
8050;SDS011;4068;42.158;24.732;2023-04-24T05:50:30;11.85;;;8.40;;
8050;SDS011;4068;42.158;24.732;2023-04-24T05:52:56;20.65;;;9.00;;
8050;SDS011;4068;42.158;24.732;2023-04-24T05:55:26;25.60;;;10.80;;
8050;SDS011;4068;42.158;24.732;2023-04-24T05:57:52;32.42;;;11.32;;
8050;SDS011;4068;42.158;24.732;2023-04-24T06:00:18;20.58;;;10.27;;
8050;SDS011;4068;42.158;24.732;2023-04-24T06:02:45;16.38;;;9.55;;
8050;SDS011;4068;42.158;24.732;2023-04-24T06:05:11;24.60;;;12.00;;
8050;SDS011;4068;42.158;24.732;2023-04-24T06:07:36;15.07;;;9.50;;
8050;SDS011;4068;42.158;24.732;2023-04-24T06:10:02;17.70;;;9.90;;
8050;SDS011;4068;42.158;24.732;2023-04-24T06:12:28;16.73;;;9.70;;
8050;SDS011;4068;42.158;24.732;2023-04-24T06:14:53;15.32;;;9.27;;
8050;SDS011;4068;42.158;24.732;2023-04-24T06:17:20;19.27;;;9.90;;
8050;SDS011;4068;42.158;24.732;2023-04-24T06:19:46;17.10;;;9.00;;
8050;SDS011;4068;42.158;24.732;2023-04-24T06:22:12;12.93;;;8.88;;
8050;SDS011;4068;42.158;24.732;2023-04-24T06:24:37;16.30;;;9.07;;
8050;SDS011;4068;42.158;24.732;2023-04-24T06:27:02;15.88;;;10.27;;
8050;SDS011;4068;42.158;24.732;2023-04-24T06:29:28;15.27;;;9.07;;
8050;SDS011;4068;42.158;24.732;2023-04-24T06:31:53;14.25;;;9.00;;
8050;SDS011;4068;42.158;24.732;2023-04-24T06:34:19;16.63;;;9.35;;
8050;SDS011;4068;42.158;24.732;2023-04-24T06:36:44;12.38;;;8.25;;
8050;SDS011;4068;42.158;24.732;2023-04-24T06:39:10;14.38;;;8.80;;
8050;SDS011;4068;42.158;24.732;2023-04-24T06:41:35;17.23;;;10.55;;
8050;SDS011;4068;42.158;24.732;2023-04-24T06:44:01;16.77;;;9.70;;
8050;SDS011;4068;42.158;24.732;2023-04-24T06:46:26;16.33;;;9.20;;
8050;SDS011;4068;42.158;24.732;2023-04-24T06:48:53;15.90;;;8.57;;
8050;SDS011;4068;42.158;24.732;2023-04-24T06:51:24;19.15;;;8.60;;
8050;SDS011;4068;42.158;24.732;2023-04-24T06:53:55;15.85;;;9.38;;
8050;SDS011;4068;42.158;24.732;2023-04-24T06:56:23;17.20;;;8.68;;
8050;SDS011;4068;42.158;24.732;2023-04-24T06:58:50;14.93;;;8.65;;
8050;SDS011;4068;42.158;24.732;2023-04-24T07:01:16;13.77;;;7.88;;
8050;SDS011;4068;42.158;24.732;2023-04-24T07:03:41;11.43;;;7.85;;
8050;SDS011;4068;42.158;24.732;2023-04-24T07:06:07;12.20;;;8.40;;
8050;SDS011;4068;42.158;24.732;2023-04-24T07:08:33;11.15;;;7.50;;
8050;SDS011;4068;42.158;24.732;2023-04-24T07:10:59;11.60;;;7.38;;
8050;SDS011;4068;42.158;24.732;2023-04-24T07:13:25;13.77;;;8.00;;
8050;SDS011;4068;42.158;24.732;2023-04-24T07:15:51;17.50;;;7.78;;
8050;SDS011;4068;42.158;24.732;2023-04-24T07:18:18;10.75;;;7.93;;
8050;SDS011;4068;42.158;24.732;2023-04-24T07:20:44;10.10;;;7.25;;
8050;SDS011;4068;42.158;24.732;2023-04-24T07:23:10;15.10;;;6.95;;
8050;SDS011;4068;42.158;24.732;2023-04-24T07:25:35;11.55;;;7.88;;
8050;SDS011;4068;42.158;24.732;2023-04-24T07:28:01;16.77;;;7.40;;
8050;SDS011;4068;42.158;24.732;2023-04-24T07:30:26;12.70;;;7.32;;
8050;SDS011;4068;42.158;24.732;2023-04-24T07:32:54;13.57;;;7.03;;
8050;SDS011;4068;42.158;24.732;2023-04-24T07:35:20;9.48;;;6.82;;
8050;SDS011;4068;42.158;24.732;2023-04-24T07:37:45;15.88;;;7.07;;
8050;SDS011;4068;42.158;24.732;2023-04-24T07:40:12;13.77;;;7.43;;
8050;SDS011;4068;42.158;24.732;2023-04-24T07:42:38;8.80;;;6.47;;
8050;SDS011;4068;42.158;24.732;2023-04-24T07:45:03;10.68;;;6.53;;
8050;SDS011;4068;42.158;24.732;2023-04-24T07:47:30;15.05;;;7.45;;
8050;SDS011;4068;42.158;24.732;2023-04-24T07:49:55;14.07;;;6.72;;
8050;SDS011;4068;42.158;24.732;2023-04-24T07:52:21;10.90;;;6.57;;
8050;SDS011;4068;42.158;24.732;2023-04-24T07:54:47;12.52;;;6.63;;
8050;SDS011;4068;42.158;24.732;2023-04-24T07:57:12;15.38;;;6.90;;
8050;SDS011;4068;42.158;24.732;2023-04-24T07:59:38;12.55;;;6.72;;
8050;SDS011;4068;42.158;24.732;2023-04-24T08:02:04;11.23;;;7.20;;
8050;SDS011;4068;42.158;24.732;2023-04-24T08:04:31;15.38;;;7.32;;
8050;SDS011;4068;42.158;24.732;2023-04-24T08:06:56;11.35;;;6.90;;
8050;SDS011;4068;42.158;24.732;2023-04-24T08:09:22;13.85;;;8.85;;
8050;SDS011;4068;42.158;24.732;2023-04-24T08:11:47;16.17;;;7.25;;
8050;SDS011;4068;42.158;24.732;2023-04-24T08:14:13;12.05;;;7.07;;
8050;SDS011;4068;42.158;24.732;2023-04-24T08:16:39;11.45;;;7.60;;
8050;SDS011;4068;42.158;24.732;2023-04-24T08:19:05;10.00;;;7.00;;
8050;SDS011;4068;42.158;24.732;2023-04-24T08:21:31;13.23;;;7.35;;
8050;SDS011;4068;42.158;24.732;2023-04-24T08:23:56;14.00;;;8.57;;
8050;SDS011;4068;42.158;24.732;2023-04-24T08:26:22;11.80;;;8.20;;
8050;SDS011;4068;42.158;24.732;2023-04-24T08:28:47;11.70;;;7.45;;
8050;SDS011;4068;42.158;24.732;2023-04-24T08:31:13;14.88;;;8.05;;
8050;SDS011;4068;42.158;24.732;2023-04-24T08:33:38;13.65;;;8.20;;
8050;SDS011;4068;42.158;24.732;2023-04-24T08:36:05;11.05;;;7.97;;
8050;SDS011;4068;42.158;24.732;2023-04-24T08:38:32;13.75;;;8.38;;
8050;SDS011;4068;42.158;24.732;2023-04-24T08:40:58;9.55;;;7.97;;
8050;SDS011;4068;42.158;24.732;2023-04-24T08:43:26;21.98;;;9.70;;
8050;SDS011;4068;42.158;24.732;2023-04-24T08:45:52;12.68;;;8.40;;
8050;SDS011;4068;42.158;24.732;2023-04-24T08:48:20;14.13;;;9.57;;
8050;SDS011;4068;42.158;24.732;2023-04-24T08:50:47;17.08;;;9.50;;
8050;SDS011;4068;42.158;24.732;2023-04-24T08:53:15;18.30;;;9.50;;
8050;SDS011;4068;42.158;24.732;2023-04-24T08:55:41;11.82;;;8.98;;
8050;SDS011;4068;42.158;24.732;2023-04-24T08:58:08;12.20;;;8.20;;
8050;SDS011;4068;42.158;24.732;2023-04-24T09:00:34;20.10;;;9.00;;
8050;SDS011;4068;42.158;24.732;2023-04-24T09:03:00;12.52;;;8.63;;
8050;SDS011;4068;42.158;24.732;2023-04-24T09:05:27;16.00;;;8.20;;
8050;SDS011;4068;42.158;24.732;2023-04-24T09:07:54;12.32;;;9.15;;
8050;SDS011;4068;42.158;24.732;2023-04-24T09:10:24;16.20;;;8.05;;
8050;SDS011;4068;42.158;24.732;2023-04-24T09:12:50;14.40;;;8.25;;
8050;SDS011;4068;42.158;24.732;2023-04-24T09:15:18;10.45;;;7.78;;
8050;SDS011;4068;42.158;24.732;2023-04-24T09:17:45;15.90;;;7.45;;
8050;SDS011;4068;42.158;24.732;2023-04-24T09:20:11;8.98;;;7.50;;
8050;SDS011;4068;42.158;24.732;2023-04-24T09:22:36;10.73;;;7.13;;
8050;SDS011;4068;42.158;24.732;2023-04-24T09:25:06;11.13;;;7.50;;
8050;SDS011;4068;42.158;24.732;2023-04-24T09:27:33;9.43;;;7.65;;
8050;SDS011;4068;42.158;24.732;2023-04-24T09:29:59;11.40;;;8.20;;
8050;SDS011;4068;42.158;24.732;2023-04-24T09:32:26;10.82;;;7.57;;
8050;SDS011;4068;42.158;24.732;2023-04-24T09:37:50;12.38;;;8.10;;
8050;SDS011;4068;42.158;24.732;2023-04-24T09:40:16;11.65;;;7.93;;
8050;SDS011;4068;42.158;24.732;2023-04-24T09:42:44;13.07;;;8.27;;
8050;SDS011;4068;42.158;24.732;2023-04-24T09:45:20;12.75;;;7.82;;
8050;SDS011;4068;42.158;24.732;2023-04-24T09:47:45;11.48;;;6.50;;
8050;SDS011;4068;42.158;24.732;2023-04-24T09:52:42;11.25;;;7.85;;
8050;SDS011;4068;42.158;24.732;2023-04-24T09:55:12;10.65;;;7.88;;
8050;SDS011;4068;42.158;24.732;2023-04-24T10:00:17;12.00;;;7.68;;
8050;SDS011;4068;42.158;24.732;2023-04-24T10:02:44;18.65;;;8.20;;
8050;SDS011;4068;42.158;24.732;2023-04-24T10:05:11;12.50;;;7.55;;
8050;SDS011;4068;42.158;24.732;2023-04-24T10:07:37;13.30;;;7.65;;
8050;SDS011;4068;42.158;24.732;2023-04-24T10:10:03;13.32;;;8.23;;
8050;SDS011;4068;42.158;24.732;2023-04-24T10:12:29;15.35;;;9.27;;
8050;SDS011;4068;42.158;24.732;2023-04-24T10:14:55;16.25;;;8.18;;
8050;SDS011;4068;42.158;24.732;2023-04-24T10:17:22;12.20;;;7.68;;
8050;SDS011;4068;42.158;24.732;2023-04-24T10:19:50;10.88;;;7.35;;
8050;SDS011;4068;42.158;24.732;2023-04-24T10:22:16;11.38;;;8.63;;
8050;SDS011;4068;42.158;24.732;2023-04-24T10:24:42;10.35;;;8.25;;
8050;SDS011;4068;42.158;24.732;2023-04-24T10:27:09;12.13;;;8.82;;
8050;SDS011;4068;42.158;24.732;2023-04-24T10:29:34;14.43;;;8.35;;
8050;SDS011;4068;42.158;24.732;2023-04-24T10:32:01;14.43;;;8.80;;
8050;SDS011;4068;42.158;24.732;2023-04-24T10:34:26;18.45;;;10.82;;
8050;SDS011;4068;42.158;24.732;2023-04-24T10:36:53;14.25;;;9.00;;
8050;SDS011;4068;42.158;24.732;2023-04-24T10:39:21;13.13;;;9.40;;
8050;SDS011;4068;42.158;24.732;2023-04-24T10:41:48;13.13;;;8.77;;
8050;SDS011;4068;42.158;24.732;2023-04-24T10:44:14;12.10;;;8.05;;
8050;SDS011;4068;42.158;24.732;2023-04-24T10:46:45;15.70;;;8.93;;
8050;SDS011;4068;42.158;24.732;2023-04-24T10:49:14;10.38;;;7.28;;
8050;SDS011;4068;42.158;24.732;2023-04-24T10:51:47;11.23;;;7.22;;
8050;SDS011;4068;42.158;24.732;2023-04-24T10:54:27;9.05;;;7.18;;
8050;SDS011;4068;42.158;24.732;2023-04-24T10:59:51;11.32;;;6.40;;
8050;SDS011;4068;42.158;24.732;2023-04-24T11:02:37;8.65;;;6.28;;
8050;SDS011;4068;42.158;24.732;2023-04-24T11:05:04;11.02;;;6.60;;
8050;SDS011;4068;42.158;24.732;2023-04-24T11:07:47;10.23;;;6.70;;
8050;SDS011;4068;42.158;24.732;2023-04-24T11:10:34;11.25;;;6.93;;
8050;SDS011;4068;42.158;24.732;2023-04-24T11:13:03;9.98;;;6.85;;
8050;SDS011;4068;42.158;24.732;2023-04-24T11:15:29;10.13;;;6.85;;
8050;SDS011;4068;42.158;24.732;2023-04-24T11:17:55;7.28;;;6.57;;
8050;SDS011;4068;42.158;24.732;2023-04-24T11:20:22;11.07;;;7.85;;
8050;SDS011;4068;42.158;24.732;2023-04-24T11:22:48;11.10;;;7.80;;
8050;SDS011;4068;42.158;24.732;2023-04-24T11:25:18;8.50;;;7.10;;
8050;SDS011;4068;42.158;24.732;2023-04-24T11:27:44;8.70;;;7.18;;
8050;SDS011;4068;42.158;24.732;2023-04-24T11:30:16;9.38;;;6.32;;
8050;SDS011;4068;42.158;24.732;2023-04-24T11:32:43;7.70;;;6.13;;
8050;SDS011;4068;42.158;24.732;2023-04-24T11:35:15;8.30;;;5.90;;
8050;SDS011;4068;42.158;24.732;2023-04-24T11:37:53;10.73;;;6.88;;
8050;SDS011;4068;42.158;24.732;2023-04-24T11:40:19;15.82;;;7.65;;
8050;SDS011;4068;42.158;24.732;2023-04-24T11:42:48;10.38;;;6.53;;
8050;SDS011;4068;42.158;24.732;2023-04-24T11:45:15;11.13;;;6.78;;
8050;SDS011;4068;42.158;24.732;2023-04-24T11:47:42;13.30;;;6.85;;
8050;SDS011;4068;42.158;24.732;2023-04-24T11:50:10;11.07;;;6.53;;
8050;SDS011;4068;42.158;24.732;2023-04-24T11:52:38;10.77;;;6.45;;
8050;SDS011;4068;42.158;24.732;2023-04-24T11:55:22;13.27;;;6.88;;
8050;SDS011;4068;42.158;24.732;2023-04-24T11:57:52;12.15;;;7.03;;
8050;SDS011;4068;42.158;24.732;2023-04-24T12:00:28;8.60;;;5.60;;
8050;SDS011;4068;42.158;24.732;2023-04-24T12:03:04;9.43;;;5.32;;
8050;SDS011;4068;42.158;24.732;2023-04-24T12:05:32;8.82;;;5.10;;
8050;SDS011;4068;42.158;24.732;2023-04-24T12:07:57;13.65;;;5.88;;
8050;SDS011;4068;42.158;24.732;2023-04-24T12:10:24;15.95;;;6.38;;
8050;SDS011;4068;42.158;24.732;2023-04-24T12:12:51;8.30;;;5.35;;
8050;SDS011;4068;42.158;24.732;2023-04-24T12:15:17;6.82;;;5.45;;
8050;SDS011;4068;42.158;24.732;2023-04-24T12:17:45;6.38;;;5.57;;
8050;SDS011;4068;42.158;24.732;2023-04-24T12:20:10;6.55;;;5.22;;
8050;SDS011;4068;42.158;24.732;2023-04-24T12:22:53;9.55;;;5.85;;
8050;SDS011;4068;42.158;24.732;2023-04-24T12:25:20;5.45;;;4.95;;
8050;SDS011;4068;42.158;24.732;2023-04-24T12:27:53;10.20;;;5.45;;
8050;SDS011;4068;42.158;24.732;2023-04-24T12:30:27;8.80;;;5.35;;
8050;SDS011;4068;42.158;24.732;2023-04-24T12:32:54;8.52;;;5.75;;
8050;SDS011;4068;42.158;24.732;2023-04-24T12:35:22;12.38;;;5.80;;
8050;SDS011;4068;42.158;24.732;2023-04-24T12:37:49;8.77;;;5.30;;
8050;SDS011;4068;42.158;24.732;2023-04-24T12:40:16;9.18;;;5.22;;
8050;SDS011;4068;42.158;24.732;2023-04-24T12:42:43;6.10;;;5.22;;
8050;SDS011;4068;42.158;24.732;2023-04-24T12:45:14;8.50;;;5.32;;
8050;SDS011;4068;42.158;24.732;2023-04-24T12:47:41;12.50;;;6.03;;
8050;SDS011;4068;42.158;24.732;2023-04-24T12:50:08;6.18;;;5.28;;
8050;SDS011;4068;42.158;24.732;2023-04-24T12:52:37;10.23;;;5.63;;
8050;SDS011;4068;42.158;24.732;2023-04-24T12:55:04;9.00;;;5.53;;
8050;SDS011;4068;42.158;24.732;2023-04-24T12:57:33;10.80;;;5.30;;
8050;SDS011;4068;42.158;24.732;2023-04-24T12:59:59;8.65;;;5.32;;
8050;SDS011;4068;42.158;24.732;2023-04-24T13:02:26;7.13;;;5.40;;
8050;SDS011;4068;42.158;24.732;2023-04-24T13:05:10;8.65;;;5.63;;
8050;SDS011;4068;42.158;24.732;2023-04-24T13:07:38;9.85;;;7.00;;
8050;SDS011;4068;42.158;24.732;2023-04-24T13:10:04;6.57;;;4.90;;
8050;SDS011;4068;42.158;24.732;2023-04-24T13:12:30;7.47;;;6.13;;
8050;SDS011;4068;42.158;24.732;2023-04-24T13:14:56;8.82;;;5.18;;
8050;SDS011;4068;42.158;24.732;2023-04-24T13:17:23;8.27;;;5.45;;
8050;SDS011;4068;42.158;24.732;2023-04-24T13:19:49;9.35;;;5.20;;
8050;SDS011;4068;42.158;24.732;2023-04-24T13:22:16;6.15;;;5.03;;
8050;SDS011;4068;42.158;24.732;2023-04-24T13:24:43;7.10;;;5.28;;
8050;SDS011;4068;42.158;24.732;2023-04-24T13:27:09;6.38;;;5.30;;
8050;SDS011;4068;42.158;24.732;2023-04-24T13:29:35;5.65;;;4.60;;
8050;SDS011;4068;42.158;24.732;2023-04-24T13:32:00;9.27;;;5.40;;
8050;SDS011;4068;42.158;24.732;2023-04-24T13:34:26;10.57;;;6.70;;
8050;SDS011;4068;42.158;24.732;2023-04-24T13:36:53;7.15;;;5.18;;
8050;SDS011;4068;42.158;24.732;2023-04-24T13:39:20;7.82;;;5.00;;
8050;SDS011;4068;42.158;24.732;2023-04-24T13:41:46;5.35;;;4.85;;
8050;SDS011;4068;42.158;24.732;2023-04-24T13:44:13;7.60;;;4.82;;
8050;SDS011;4068;42.158;24.732;2023-04-24T13:46:39;10.32;;;5.22;;
8050;SDS011;4068;42.158;24.732;2023-04-24T13:49:05;7.38;;;5.57;;
8050;SDS011;4068;42.158;24.732;2023-04-24T13:51:30;6.80;;;4.95;;
8050;SDS011;4068;42.158;24.732;2023-04-24T13:53:55;5.90;;;4.78;;
8050;SDS011;4068;42.158;24.732;2023-04-24T13:56:21;5.82;;;5.22;;
8050;SDS011;4068;42.158;24.732;2023-04-24T13:58:47;7.03;;;5.07;;
8050;SDS011;4068;42.158;24.732;2023-04-24T14:01:13;9.15;;;5.45;;
8050;SDS011;4068;42.158;24.732;2023-04-24T14:03:40;6.95;;;5.30;;
8050;SDS011;4068;42.158;24.732;2023-04-24T14:06:06;5.35;;;4.57;;
8050;SDS011;4068;42.158;24.732;2023-04-24T14:08:32;5.95;;;4.45;;
8050;SDS011;4068;42.158;24.732;2023-04-24T14:10:57;6.22;;;4.72;;
8050;SDS011;4068;42.158;24.732;2023-04-24T14:13:23;9.90;;;5.22;;
8050;SDS011;4068;42.158;24.732;2023-04-24T14:15:48;6.60;;;5.07;;
8050;SDS011;4068;42.158;24.732;2023-04-24T14:18:14;5.03;;;4.53;;
8050;SDS011;4068;42.158;24.732;2023-04-24T14:20:39;6.85;;;4.72;;
8050;SDS011;4068;42.158;24.732;2023-04-24T14:23:05;7.28;;;4.57;;
8050;SDS011;4068;42.158;24.732;2023-04-24T14:25:30;10.00;;;5.40;;
8050;SDS011;4068;42.158;24.732;2023-04-24T14:27:56;7.32;;;5.25;;
8050;SDS011;4068;42.158;24.732;2023-04-24T14:30:21;10.18;;;4.95;;
8050;SDS011;4068;42.158;24.732;2023-04-24T14:32:48;5.07;;;4.30;;
8050;SDS011;4068;42.158;24.732;2023-04-24T14:35:13;7.75;;;5.03;;
8050;SDS011;4068;42.158;24.732;2023-04-24T14:37:39;6.82;;;4.53;;
8050;SDS011;4068;42.158;24.732;2023-04-24T14:40:06;9.68;;;4.80;;
8050;SDS011;4068;42.158;24.732;2023-04-24T14:42:33;6.60;;;5.30;;
8050;SDS011;4068;42.158;24.732;2023-04-24T14:44:59;9.82;;;5.43;;
8050;SDS011;4068;42.158;24.732;2023-04-24T14:47:24;5.60;;;4.82;;
8050;SDS011;4068;42.158;24.732;2023-04-24T14:49:50;6.50;;;4.47;;
8050;SDS011;4068;42.158;24.732;2023-04-24T14:52:16;9.15;;;4.15;;